createdAt,value
2022-09-12T00:02:34.425Z,76.27
2022-09-12T00:05:25.567Z,76.09
2022-09-12T00:08:16.038Z,76.19
2022-09-12T00:11:12.102Z,76.19
2022-09-12T00:14:03.515Z,75.52
2022-09-12T00:16:54.298Z,75.15
2022-09-12T00:19:44.673Z,74.64
2022-09-12T00:22:35.480Z,74.62
2022-09-12T00:25:25.456Z,73.70
2022-09-12T00:28:17.030Z,73.35
2022-09-12T00:31:09.499Z,72.76
2022-09-12T00:34:02.204Z,72.80
2022-09-12T00:36:52.289Z,73.43
2022-09-12T00:39:42.730Z,73.48
2022-09-12T00:42:32.929Z,71.65
2022-09-12T00:45:29.261Z,71.41
2022-09-12T00:48:24.532Z,71.21
2022-09-12T00:51:15.191Z,70.84
2022-09-12T00:54:15.468Z,70.62
2022-09-12T00:57:09.128Z,69.73
2022-09-12T01:00:15.134Z,70.01
2022-09-12T01:03:10.564Z,69.43
2022-09-12T01:06:17.561Z,68.49
2022-09-12T01:09:09.918Z,69.12
2022-09-12T01:12:00.507Z,68.74
2022-09-12T01:14:50.773Z,68.96
2022-09-12T01:18:01.072Z,69.31
2022-09-12T01:20:53.033Z,68.39
2022-09-12T01:24:01.515Z,68.51
2022-09-12T01:27:12.973Z,68.51
2022-09-12T01:30:19.500Z,68.16
2022-09-12T01:33:40.076Z,68.46
2022-09-12T01:36:49.600Z,68.26
2022-09-12T01:40:21.600Z,68.52
2022-09-12T01:43:47.160Z,69.06
2022-09-12T01:46:46.822Z,68.34
2022-09-12T01:50:11.468Z,68.81
2022-09-12T01:53:18.641Z,68.61
2022-09-12T01:56:23.764Z,67.33
2022-09-12T01:59:57.501Z,66.80
2022-09-12T02:03:03.716Z,65.70
2022-09-12T02:05:59.203Z,65.08
2022-09-12T02:08:58.667Z,64.93
2022-09-12T02:11:49.131Z,65.05
2022-09-12T02:14:47.162Z,65.05
2022-09-12T02:17:42.529Z,65.20
2022-09-12T02:20:48.085Z,65.41
2022-09-12T02:23:42.412Z,65.14
2022-09-12T02:26:39.097Z,64.96
2022-09-12T02:29:29.635Z,64.47
2022-09-12T02:32:40.382Z,64.54
2022-09-12T02:35:50.988Z,63.96
2022-09-12T02:38:47.268Z,64.83
2022-09-12T02:41:37.438Z,64.81
2022-09-12T02:44:29.888Z,64.21
2022-09-12T02:47:27.399Z,64.58
2022-09-12T02:50:18.035Z,64.01
2022-09-12T02:53:09.921Z,63.62
2022-09-12T02:56:00.084Z,63.69
2022-09-12T02:58:51.445Z,63.81
2022-09-12T03:01:53.791Z,64.94
2022-09-12T03:05:04.564Z,63.98
2022-09-12T03:08:09.996Z,64.29
2022-09-12T03:11:45.849Z,64.78
2022-09-12T03:15:05.965Z,64.36
2022-09-12T03:18:15.843Z,64.29
2022-09-12T03:21:25.370Z,63.98
2022-09-12T03:24:34.606Z,64.28
2022-09-12T03:27:38.131Z,64.36
2022-09-12T03:30:30.507Z,63.41
2022-09-12T03:33:23.117Z,62.53
2022-09-12T03:36:33.129Z,62.77
2022-09-12T03:39:25.643Z,62.42
2022-09-12T03:42:15.194Z,62.65
2022-09-12T03:45:04.747Z,63.10
2022-09-12T03:47:55.023Z,62.76
2022-09-12T03:50:45.339Z,62.87
2022-09-12T03:53:36.750Z,62.58
2022-09-12T03:56:26.682Z,61.59
2022-09-12T03:59:16.873Z,61.95
2022-09-12T04:02:09.326Z,62.04
2022-09-12T04:05:00.269Z,60.75
2022-09-12T04:07:50.714Z,60.85
2022-09-12T04:10:43.729Z,60.75
2022-09-12T04:13:34.289Z,61.21
2022-09-12T04:16:24.424Z,61.24
2022-09-12T04:19:15.097Z,61.52
2022-09-12T04:22:05.169Z,61.29
2022-09-12T04:24:55.850Z,61.40
2022-09-12T04:27:49.053Z,61.04
2022-09-12T04:30:39.405Z,60.32
2022-09-12T04:33:32.206Z,60.66
2022-09-12T04:36:24.246Z,60.89
2022-09-12T04:39:15.096Z,59.60
2022-09-12T04:42:06.105Z,59.33
2022-09-12T04:44:58.218Z,59.37
2022-09-12T04:47:48.781Z,58.11
2022-09-12T04:50:39.197Z,58.62
2022-09-12T04:53:29.520Z,58.88
2022-09-12T04:56:20.466Z,59.18
2022-09-12T04:59:11.040Z,59.58
2022-09-12T05:02:01.562Z,59.19
2022-09-12T05:04:52.663Z,58.64
2022-09-12T05:07:43.033Z,59.46
2022-09-12T05:10:34.394Z,60.28
2022-09-12T05:13:24.967Z,60.90
2022-09-12T05:16:17.368Z,61.65
2022-09-12T05:19:07.310Z,61.47
2022-09-12T05:21:58.229Z,60.98
2022-09-12T05:24:50.660Z,61.31
2022-09-12T05:27:42.832Z,61.02
2022-09-12T05:30:34.339Z,60.93
2022-09-12T05:33:25.261Z,60.92
2022-09-12T05:36:26.312Z,60.24
2022-09-12T05:39:16.562Z,60.81
2022-09-12T05:42:08.681Z,60.20
2022-09-12T05:44:58.938Z,59.93
2022-09-12T05:47:49.610Z,59.75
2022-09-12T05:50:40.394Z,59.87
2022-09-12T05:53:32.498Z,60.61
2022-09-12T05:56:29.693Z,60.33
2022-09-12T05:59:23.065Z,60.13
2022-09-12T06:02:14.362Z,59.92
2022-09-12T06:05:04.176Z,60.33
2022-09-12T06:07:55.592Z,60.77
2022-09-12T06:10:46.638Z,61.03
2022-09-12T06:13:40.214Z,59.60
2022-09-12T06:16:33.774Z,58.28
2022-09-12T06:19:26.478Z,57.80
2022-09-12T06:22:16.310Z,58.63
2022-09-12T06:25:07.371Z,58.02
2022-09-12T06:27:57.455Z,57.77
2022-09-12T06:30:47.874Z,57.32
2022-09-12T06:33:40.141Z,57.45
2022-09-12T06:36:33.063Z,57.18
2022-09-12T06:39:24.981Z,57.20
2022-09-12T06:42:16.245Z,57.80
2022-09-12T06:45:18.610Z,57.45
2022-09-12T06:48:12.255Z,57.89
2022-09-12T06:51:16.200Z,57.25
2022-09-12T06:54:06.914Z,57.78
2022-09-12T06:56:57.458Z,57.31
2022-09-12T06:59:50.621Z,57.23
2022-09-12T07:02:41.447Z,57.40
2022-09-12T07:05:31.969Z,56.93
2022-09-12T07:08:22.160Z,56.57
2022-09-12T07:11:23.981Z,56.35
2022-09-12T07:14:16.775Z,56.21
2022-09-12T07:17:10.688Z,55.12
2022-09-12T07:20:03.248Z,54.48
2022-09-12T07:22:54.095Z,54.69
2022-09-12T07:25:44.603Z,55.14
2022-09-12T07:28:35.696Z,54.94
2022-09-12T07:31:27.367Z,54.79
2022-09-12T07:34:17.352Z,55.36
2022-09-12T07:37:08.425Z,55.43
2022-09-12T07:39:59.503Z,55.57
2022-09-12T07:42:49.695Z,56.00
2022-09-12T07:45:43.796Z,55.98
2022-09-12T07:48:34.307Z,56.44
2022-09-12T07:51:27.617Z,56.14
2022-09-12T07:54:19.212Z,56.49
2022-09-12T07:57:10.140Z,56.63
2022-09-12T08:00:01.040Z,56.42
2022-09-12T08:02:56.612Z,57.24
2022-09-12T08:05:47.534Z,57.86
2022-09-12T08:08:38.724Z,56.78
2022-09-12T08:11:30.613Z,56.15
2022-09-12T08:14:20.364Z,56.01
2022-09-12T08:17:12.091Z,54.99
2022-09-12T08:20:02.323Z,55.86
2022-09-12T08:22:53.124Z,55.72
2022-09-12T08:25:45.247Z,56.19
2022-09-12T08:28:38.026Z,57.04
2022-09-12T08:31:30.456Z,57.31
2022-09-12T08:34:20.962Z,57.58
2022-09-12T08:37:11.330Z,57.99
2022-09-12T08:40:02.139Z,57.95
2022-09-12T08:43:12.104Z,58.46
2022-09-12T08:46:19.724Z,58.27
2022-09-12T08:49:13.668Z,58.25
2022-09-12T08:52:16.576Z,58.45
2022-09-12T08:55:09.172Z,58.73
2022-09-12T08:58:01.911Z,58.91
2022-09-12T09:01:00.306Z,59.14
2022-09-12T09:03:59.007Z,58.72
2022-09-12T09:07:17.834Z,58.52
2022-09-12T09:10:11.614Z,58.17
2022-09-12T09:13:06.989Z,58.98
2022-09-12T09:16:16.978Z,58.84
2022-09-12T09:19:30.491Z,59.10
2022-09-12T09:22:39.840Z,59.21
2022-09-12T09:26:10.659Z,59.79
2022-09-12T09:29:28.218Z,60.15
2022-09-12T09:32:29.374Z,60.69
2022-09-12T09:35:21.564Z,60.48
2022-09-12T09:38:51.087Z,61.17
2022-09-12T09:41:51.302Z,61.36
2022-09-12T09:44:41.940Z,61.46
2022-09-12T09:47:32.624Z,61.42
2022-09-12T09:50:22.869Z,61.59
2022-09-12T09:53:27.906Z,61.92
2022-09-12T09:56:31.337Z,61.73
2022-09-12T09:59:33.069Z,62.07
2022-09-12T10:02:27.868Z,62.45
2022-09-12T10:05:19.653Z,62.29
2022-09-12T10:08:12.976Z,61.90
2022-09-12T10:11:24.566Z,62.33
2022-09-12T10:14:41.042Z,62.85
2022-09-12T10:17:34.805Z,63.01
2022-09-12T10:20:41.484Z,63.18
2022-09-12T10:23:38.862Z,63.06
2022-09-12T10:26:35.380Z,63.25
2022-09-12T10:29:34.563Z,63.51
2022-09-12T10:32:41.420Z,63.29
2022-09-12T10:35:34.928Z,62.48
2022-09-12T10:38:30.819Z,62.55
2022-09-12T10:41:21.222Z,63.21
2022-09-12T10:44:17.830Z,63.41
2022-09-12T10:47:37.330Z,63.52
2022-09-12T10:50:32.505Z,63.17
2022-09-12T10:53:29.916Z,63.35
2022-09-12T10:56:25.078Z,63.30
2022-09-12T10:59:43.847Z,63.66
2022-09-12T11:02:54.628Z,63.57
2022-09-12T11:06:01.877Z,63.45
2022-09-12T11:09:17.603Z,63.95
2022-09-12T11:12:47.092Z,64.08
2022-09-12T11:16:09.158Z,64.67
2022-09-12T11:19:13.600Z,64.35
2022-09-12T11:22:26.717Z,64.73
2022-09-12T11:25:41.645Z,65.14
2022-09-12T11:28:54.001Z,64.20
2022-09-12T11:32:15.088Z,64.47
2022-09-12T11:35:30.929Z,64.65
2022-09-12T11:38:45.979Z,64.30
2022-09-12T11:41:42.804Z,64.63
2022-09-12T11:44:45.494Z,63.91
2022-09-12T11:47:37.688Z,64.12
2022-09-12T11:50:33.222Z,64.26
2022-09-12T11:53:31.417Z,63.89
2022-09-12T11:56:21.887Z,63.72
2022-09-12T11:59:36.242Z,63.69
2022-09-12T12:02:31.619Z,63.77
2022-09-12T12:05:26.769Z,63.80
2022-09-12T12:08:17.332Z,63.79
2022-09-12T12:11:11.894Z,63.31
2022-09-12T12:14:28.599Z,63.30
2022-09-12T12:17:25.603Z,63.90
2022-09-12T12:20:20.900Z,63.28
2022-09-12T12:23:36.686Z,63.95
2022-09-12T12:26:46.879Z,63.39
2022-09-12T12:29:43.396Z,63.97
2022-09-12T12:32:53.206Z,64.56
2022-09-12T12:35:49.962Z,64.25
2022-09-12T12:38:42.442Z,64.13
2022-09-12T12:41:38.181Z,63.63
2022-09-12T12:44:55.800Z,63.52
2022-09-12T12:47:50.972Z,63.10
2022-09-12T12:50:40.972Z,63.06
2022-09-12T12:53:31.357Z,63.15
2022-09-12T12:56:41.535Z,63.25
2022-09-12T12:59:32.742Z,63.83
2022-09-12T13:02:59.295Z,63.78
2022-09-12T13:05:50.570Z,63.74
2022-09-12T13:08:42.877Z,63.29
2022-09-12T13:11:39.151Z,63.37
2022-09-12T13:14:44.803Z,62.92
2022-09-12T13:17:45.543Z,63.67
2022-09-12T13:20:39.468Z,62.94
2022-09-12T13:23:32.114Z,63.28
2022-09-12T13:26:29.239Z,62.61
2022-09-12T13:29:23.308Z,62.57
2022-09-12T13:32:13.447Z,62.23
2022-09-12T13:35:30.656Z,62.41
2022-09-12T13:38:30.855Z,62.45
2022-09-12T13:41:55.106Z,62.66
2022-09-12T13:44:52.914Z,62.28
2022-09-12T13:47:52.542Z,62.59
2022-09-12T13:51:07.179Z,62.27
2022-09-12T13:54:00.022Z,62.13
2022-09-12T13:56:51.197Z,62.69
2022-09-12T13:59:44.082Z,62.57
2022-09-12T14:02:38.319Z,62.46
2022-09-12T14:05:28.919Z,62.75
2022-09-12T14:08:21.140Z,62.44
2022-09-12T14:11:20.803Z,62.27
2022-09-12T14:14:28.749Z,62.18
2022-09-12T14:17:27.481Z,62.39
2022-09-12T14:20:22.082Z,62.69
2022-09-12T14:23:31.810Z,62.45
2022-09-12T14:26:24.910Z,62.15
2022-09-12T14:29:18.573Z,62.26
2022-09-12T14:32:30.246Z,62.51
2022-09-12T14:35:22.592Z,62.46
2022-09-12T14:38:18.924Z,62.29
2022-09-12T14:41:12.114Z,62.80
2022-09-12T14:44:06.375Z,62.80
2022-09-12T14:46:56.756Z,63.28
2022-09-12T14:49:49.195Z,63.58
2022-09-12T14:52:39.857Z,63.65
2022-09-12T14:55:35.549Z,64.00
2022-09-12T14:58:28.319Z,63.90
2022-09-12T15:01:25.327Z,63.97
2022-09-12T15:04:49.504Z,63.81
2022-09-12T15:07:58.306Z,64.16
2022-09-12T15:10:48.589Z,64.08
2022-09-12T15:13:43.313Z,64.58
2022-09-12T15:16:33.507Z,64.59
2022-09-12T15:19:23.473Z,64.79
2022-09-12T15:22:14.932Z,64.74
2022-09-12T15:25:06.555Z,64.93
2022-09-12T15:27:57.574Z,65.13
2022-09-12T15:30:50.874Z,65.37
2022-09-12T15:33:41.139Z,65.44
2022-09-12T15:36:31.657Z,65.30
2022-09-12T15:39:22.166Z,65.35
2022-09-12T15:42:12.654Z,65.56
2022-09-12T15:45:02.984Z,65.51
2022-09-12T15:47:53.548Z,65.75
2022-09-12T15:50:44.399Z,65.73
2022-09-12T15:53:34.292Z,65.57
2022-09-12T15:56:24.877Z,65.44
2022-09-12T15:59:15.115Z,65.48
2022-09-12T16:02:07.129Z,65.34
2022-09-12T16:04:57.489Z,65.15
2022-09-12T16:07:48.018Z,64.76
2022-09-12T16:10:38.355Z,64.83
2022-09-12T16:13:28.613Z,65.09
2022-09-12T16:16:19.124Z,65.57
2022-09-12T16:19:13.187Z,65.17
2022-09-12T16:22:03.515Z,65.20
2022-09-12T16:24:54.029Z,65.51
2022-09-12T16:27:44.709Z,65.36
2022-09-12T16:30:40.160Z,65.06
2022-09-12T16:33:31.280Z,64.89
2022-09-12T16:36:23.418Z,65.12
2022-09-12T16:39:13.686Z,64.75
2022-09-12T16:42:04.996Z,65.02
2022-09-12T16:44:54.720Z,64.93
2022-09-12T16:47:45.057Z,64.47
2022-09-12T16:50:36.202Z,64.36
2022-09-12T16:53:29.068Z,64.84
2022-09-12T16:56:19.128Z,63.58
2022-09-12T16:59:11.115Z,63.57
2022-09-12T17:02:00.525Z,63.24
2022-09-12T17:04:51.080Z,63.03
2022-09-12T17:07:41.377Z,63.27
2022-09-12T17:10:32.394Z,62.96
2022-09-12T17:13:22.322Z,63.26
2022-09-12T17:16:13.722Z,63.81
2022-09-12T17:19:04.049Z,64.04
2022-09-12T17:21:54.908Z,64.31
2022-09-12T17:24:45.295Z,64.35
2022-09-12T17:27:35.395Z,64.66
2022-09-12T17:30:25.023Z,64.76
2022-09-12T17:33:16.021Z,64.86
2022-09-12T17:36:10.697Z,64.97
2022-09-12T17:39:01.188Z,64.81
2022-09-12T17:41:53.173Z,64.60
2022-09-12T17:44:43.007Z,64.47
2022-09-12T17:47:33.194Z,64.69
2022-09-12T17:50:32.124Z,64.93
2022-09-12T17:53:23.443Z,65.30
2022-09-12T17:56:14.579Z,65.82
2022-09-12T17:59:04.720Z,65.99
2022-09-12T18:02:12.632Z,66.33
2022-09-12T18:05:07.024Z,66.29
2022-09-12T18:07:56.922Z,65.84
2022-09-12T18:10:47.446Z,65.88
2022-09-12T18:13:37.624Z,66.21
2022-09-12T18:16:29.847Z,66.40
2022-09-12T18:19:20.013Z,66.53
2022-09-12T18:22:10.851Z,66.41
2022-09-12T18:25:01.072Z,66.04
2022-09-12T18:27:50.530Z,66.43
2022-09-12T18:30:43.251Z,66.84
2022-09-12T18:33:34.315Z,66.77
2022-09-12T18:36:24.214Z,66.84
2022-09-12T18:39:14.526Z,66.77
2022-09-12T18:42:04.552Z,67.12
2022-09-12T18:44:55.191Z,67.08
2022-09-12T18:47:44.968Z,66.74
2022-09-12T18:50:35.177Z,66.58
2022-09-12T18:53:25.228Z,66.42
2022-09-12T18:56:16.372Z,66.51
2022-09-12T18:59:06.900Z,66.80
2022-09-12T19:01:57.118Z,67.15
2022-09-12T19:04:47.475Z,66.76
2022-09-12T19:07:37.298Z,67.47
2022-09-12T19:10:27.634Z,67.26
2022-09-12T19:13:18.875Z,67.34
2022-09-12T19:16:11.241Z,67.51
2022-09-12T19:19:03.951Z,67.44
2022-09-12T19:21:54.884Z,67.55
2022-09-12T19:24:45.078Z,67.74
2022-09-12T19:27:35.178Z,67.78
2022-09-12T19:30:25.243Z,67.88
2022-09-12T19:33:15.944Z,67.95
2022-09-12T19:36:21.950Z,67.87
2022-09-12T19:39:20.904Z,67.87
2022-09-12T19:42:10.823Z,67.95
2022-09-12T19:45:00.645Z,67.96
2022-09-12T19:47:50.589Z,68.06
2022-09-12T19:50:41.118Z,68.33
2022-09-12T19:53:32.165Z,68.56
2022-09-12T19:56:21.780Z,68.74
2022-09-12T19:59:12.629Z,68.97
2022-09-12T20:02:05.123Z,68.99
2022-09-12T20:04:55.636Z,69.12
2022-09-12T20:07:45.737Z,69.04
2022-09-12T20:10:35.851Z,68.87
2022-09-12T20:13:26.170Z,68.49
2022-09-12T20:16:22.330Z,68.81
2022-09-12T20:19:12.695Z,68.39
2022-09-12T20:22:02.753Z,68.51
2022-09-12T20:24:52.615Z,68.20
2022-09-12T20:27:42.567Z,68.33
2022-09-12T20:30:32.594Z,68.30
2022-09-12T20:33:22.733Z,68.52
2022-09-12T20:36:19.249Z,68.39
2022-09-12T20:39:10.104Z,68.47
2022-09-12T20:42:00.406Z,68.73
2022-09-12T20:44:50.992Z,68.71
2022-09-12T20:47:41.012Z,68.80
2022-09-12T20:50:31.154Z,68.61
2022-09-12T20:53:21.355Z,68.29
2022-09-12T20:56:12.000Z,68.29
2022-09-12T20:59:04.428Z,68.44
2022-09-12T21:01:55.042Z,68.39
2022-09-12T21:04:45.051Z,68.68
2022-09-12T21:07:34.303Z,68.99
2022-09-12T21:10:24.348Z,69.23
2022-09-12T21:13:17.585Z,69.03
2022-09-12T21:16:10.011Z,69.31
2022-09-12T21:19:01.000Z,69.39
2022-09-12T21:21:51.061Z,69.38
2022-09-12T21:24:41.162Z,69.66
2022-09-12T21:27:32.023Z,69.38
2022-09-12T21:30:22.266Z,69.68
2022-09-12T21:33:13.112Z,69.74
2022-09-12T21:36:07.469Z,69.86
2022-09-12T21:39:01.971Z,69.92
2022-09-12T21:41:51.853Z,69.94
2022-09-12T21:44:42.302Z,69.95
2022-09-12T21:47:31.975Z,70.10
2022-09-12T21:50:22.820Z,70.28
2022-09-12T21:53:12.592Z,70.81
2022-09-12T21:56:08.447Z,71.33
2022-09-12T21:58:58.486Z,71.38
2022-09-12T22:02:10.210Z,71.30
2022-09-12T22:05:00.378Z,71.80
2022-09-12T22:07:50.326Z,71.49
2022-09-12T22:10:41.556Z,71.41
2022-09-12T22:13:33.424Z,71.88
2022-09-12T22:16:24.218Z,72.01
2022-09-12T22:19:16.468Z,72.12
2022-09-12T22:22:24.846Z,71.97
2022-09-12T22:25:15.603Z,72.43
2022-09-12T22:28:05.130Z,72.72
2022-09-12T22:30:56.113Z,72.69
2022-09-12T22:33:49.411Z,72.78
2022-09-12T22:36:39.411Z,72.64
2022-09-12T22:39:30.611Z,72.90
2022-09-12T22:42:24.065Z,72.39
2022-09-12T22:45:15.825Z,72.02
2022-09-12T22:48:09.239Z,72.21
2022-09-12T22:50:59.593Z,72.09
2022-09-12T22:53:51.176Z,72.52
2022-09-12T22:56:42.168Z,72.33
2022-09-12T22:59:32.644Z,72.64
2022-09-12T23:02:24.649Z,72.58
2022-09-12T23:05:16.124Z,72.50
2022-09-12T23:08:09.012Z,72.48
2022-09-12T23:11:14.483Z,72.56
2022-09-12T23:14:04.667Z,72.88
2022-09-12T23:16:54.652Z,71.88
2022-09-12T23:19:44.750Z,71.86
2022-09-12T23:22:34.933Z,71.66
2022-09-12T23:25:25.654Z,71.42
2022-09-12T23:28:16.291Z,70.96
2022-09-12T23:31:06.848Z,71.00
2022-09-12T23:33:58.360Z,70.95
2022-09-12T23:36:48.002Z,71.16
2022-09-12T23:39:38.924Z,70.80
2022-09-12T23:42:29.142Z,70.35
2022-09-12T23:45:19.375Z,70.62
2022-09-12T23:48:10.237Z,69.98
2022-09-12T23:51:00.620Z,69.04
2022-09-12T23:53:50.632Z,69.30
2022-09-12T23:56:40.664Z,68.48
2022-09-12T23:59:32.419Z,68.12
